Etusivu
METAR-TAF:

METAR-TAF

Lentoasemat :

Red Wing Regional Airport

Red Wing, Minnesota, Yhdysvallat

Leveyspiiri: 44-35-25N, Pituuspiiri: 092-29-10W, korkeus merenpinnasta: 239 m

Tämänhetkinen sää

Tämä raportti tehtiin 21 minuuttia sitten, kello 17.19 UTC
Tuuli 8 kn luoteesta, vaihdellen lännen/luoteen ja pohjoisen välillä
Lämpötila 8°C
Kosteus 49%
Ilmanpaine 1019 hPa
Näkyvyys: 16.1 km
Pilvistä 2700 ft:n korkeudessa

METAR: KRGK 161719Z AUTO 32008KT 282V352 10SM OVC027 08/M02 A3010 RMK AO2

Aika: 12:40 (17:40 UTC)


TAF: puuttuu

Säähavainnot ja -ennusteet yli 4000 lentoasemalta (METAR- ja TAF-raportit).

Käytössä olevat sääasemat on merkitty karttaan keltaisilla ja punaisilla pisteillä.

Aseta hiiri pisteen päälle nähdäksesi sääaseman nimen.

Klikkaa sitten nähdäksesi säähavainnot ja -ennusteet.

Kartan vaihtaminen: klikkaa mustalla rastilla varustettuja vihreitä pisteitä, niin voit zoomata sisään; viivalla varustettua vihreää pistettä, niin voit zoomata ulos tai vihreitä nuolia, niin pääset viereisille kartoille.


METAR-TAF: